sensor_id;sensor_type;location;lat;lon;timestamp;pressure;altitude;pressure_sealevel;temperature;humidity
83691;BME280;73671;43.220;0.064;2024-03-07T00:02:05;97852.69;;;7.36;57.01
83691;BME280;73671;43.220;0.064;2024-03-07T00:04:31;97852.69;;;7.36;57.01
83691;BME280;73671;43.220;0.064;2024-03-07T00:06:57;97852.69;;;7.36;57.01
83691;BME280;73671;43.220;0.064;2024-03-07T00:09:22;97834.81;;;7.19;57.67
83691;BME280;73671;43.220;0.064;2024-03-07T00:11:50;71229.28;;;7.11;100.00
83691;BME280;73671;43.220;0.064;2024-03-07T00:14:15;97824.59;;;7.07;58.02
83691;BME280;73671;43.220;0.064;2024-03-07T00:16:40;97824.59;;;7.07;58.02
83691;BME280;73671;43.220;0.064;2024-03-07T00:19:06;97824.59;;;7.07;58.02
83691;BME280;73671;43.220;0.064;2024-03-07T00:21:31;97810.69;;;7.05;100.00
83691;BME280;73671;43.220;0.064;2024-03-07T00:23:57;71229.28;;;-146.39;100.00
83691;BME280;73671;43.220;0.064;2024-03-07T00:26:22;97815.09;;;6.98;57.35
83691;BME280;73671;43.220;0.064;2024-03-07T00:28:48;97808.97;;;6.94;57.29
83691;BME280;73671;43.220;0.064;2024-03-07T00:31:13;97803.53;;;6.94;57.16
83691;BME280;73671;43.220;0.064;2024-03-07T00:33:39;97803.53;;;6.94;57.16
83691;BME280;73671;43.220;0.064;2024-03-07T00:36:04;97803.53;;;6.94;57.16
83691;BME280;73671;43.220;0.064;2024-03-07T00:38:31;97784.59;;;6.74;58.36
83691;BME280;73671;43.220;0.064;2024-03-07T00:40:56;97792.41;;;6.69;57.86
83691;BME280;73671;43.220;0.064;2024-03-07T00:43:22;97785.50;;;6.64;57.62
83691;BME280;73671;43.220;0.064;2024-03-07T00:45:47;97785.50;;;6.64;57.62
83691;BME280;73671;43.220;0.064;2024-03-07T00:48:16;97793.13;;;6.49;57.48
83691;BME280;73671;43.220;0.064;2024-03-07T00:50:42;97793.13;;;6.49;57.48
83691;BME280;73671;43.220;0.064;2024-03-07T00:53:08;97793.13;;;6.49;57.48
83691;BME280;73671;43.220;0.064;2024-03-07T00:55:33;97776.38;;;6.07;58.64
83691;BME280;73671;43.220;0.064;2024-03-07T00:57:59;71229.28;;;6.15;100.00
83691;BME280;73671;43.220;0.064;2024-03-07T01:00:24;97783.22;;;6.15;58.10
83691;BME280;73671;43.220;0.064;2024-03-07T01:02:50;97783.22;;;6.15;58.10
83691;BME280;73671;43.220;0.064;2024-03-07T01:05:18;97783.22;;;6.15;58.10
83691;BME280;73671;43.220;0.064;2024-03-07T01:07:44;97771.28;;;5.86;58.20
83691;BME280;73671;43.220;0.064;2024-03-07T01:10:12;97771.28;;;5.86;58.20
83691;BME280;73671;43.220;0.064;2024-03-07T01:12:38;90663.78;;;6.01;100.00
83691;BME280;73671;43.220;0.064;2024-03-07T01:15:03;97758.75;;;5.99;57.39
83691;BME280;73671;43.220;0.064;2024-03-07T01:17:33;97749.06;;;5.74;58.18
83691;BME280;73671;43.220;0.064;2024-03-07T01:19:59;97738.75;;;5.39;59.34
83691;BME280;73671;43.220;0.064;2024-03-07T01:22:24;97738.75;;;5.39;59.34
83691;BME280;73671;43.220;0.064;2024-03-07T01:24:50;97738.75;;;5.39;59.34
83691;BME280;73671;43.220;0.064;2024-03-07T01:27:16;97715.88;;;5.74;57.91
83691;BME280;73671;43.220;0.064;2024-03-07T01:29:42;97715.88;;;5.74;57.91
83691;BME280;73671;43.220;0.064;2024-03-07T01:32:10;97712.97;;;5.61;58.08
83691;BME280;73671;43.220;0.064;2024-03-07T01:34:35;97707.31;;;5.52;100.00
83691;BME280;73671;43.220;0.064;2024-03-07T01:37:00;97707.31;;;5.52;58.48
83691;BME280;73671;43.220;0.064;2024-03-07T01:39:27;97701.53;;;5.53;57.81
83691;BME280;73671;43.220;0.064;2024-03-07T01:41:52;97701.53;;;5.53;57.81
83691;BME280;73671;43.220;0.064;2024-03-07T01:44:18;97697.22;;;4.64;60.70
83691;BME280;73671;43.220;0.064;2024-03-07T01:46:43;97690.00;;;4.88;59.60
83691;BME280;73671;43.220;0.064;2024-03-07T01:49:08;97687.06;;;5.09;58.95
83691;BME280;73671;43.220;0.064;2024-03-07T01:51:36;97687.06;;;5.09;58.95
83691;BME280;73671;43.220;0.064;2024-03-07T01:54:02;97677.19;;;5.26;57.92
83691;BME280;73671;43.220;0.064;2024-03-07T01:56:28;90564.31;;;5.28;100.00
83691;BME280;73671;43.220;0.064;2024-03-07T01:58:55;97674.84;;;5.28;58.54
83691;BME280;73671;43.220;0.064;2024-03-07T02:01:22;97674.84;;;5.28;58.54
83691;BME280;73671;43.220;0.064;2024-03-07T02:03:48;97674.84;;;5.28;58.54
83691;BME280;73671;43.220;0.064;2024-03-07T02:06:14;97658.13;;;5.10;58.15
83691;BME280;73671;43.220;0.064;2024-03-07T02:08:40;97648.69;;;4.95;58.69
83691;BME280;73671;43.220;0.064;2024-03-07T02:11:06;97649.78;;;5.01;58.82
83691;BME280;73671;43.220;0.064;2024-03-07T02:13:31;97651.31;;;5.02;58.28
83691;BME280;73671;43.220;0.064;2024-03-07T02:15:57;97639.84;;;4.94;100.00
83691;BME280;73671;43.220;0.064;2024-03-07T02:18:22;97645.19;;;4.98;58.36
83691;BME280;73671;43.220;0.064;2024-03-07T02:20:49;97642.44;;;5.01;58.56
83691;BME280;73671;43.220;0.064;2024-03-07T02:23:14;97642.44;;;5.01;58.56
83691;BME280;73671;43.220;0.064;2024-03-07T02:25:40;97642.44;;;5.01;58.56
83691;BME280;73671;43.220;0.064;2024-03-07T02:28:05;97642.44;;;5.01;58.56
83691;BME280;73671;43.220;0.064;2024-03-07T02:30:31;97600.31;;;4.50;59.63
83691;BME280;73671;43.220;0.064;2024-03-07T02:32:59;97600.31;;;4.50;59.63
83691;BME280;73671;43.220;0.064;2024-03-07T02:35:32;97612.88;;;4.63;59.08
83691;BME280;73671;43.220;0.064;2024-03-07T02:37:59;97606.63;;;4.70;59.04
83691;BME280;73671;43.220;0.064;2024-03-07T02:40:24;97618.84;;;4.78;58.66
83691;BME280;73671;43.220;0.064;2024-03-07T02:42:50;97618.84;;;4.78;58.66
83691;BME280;73671;43.220;0.064;2024-03-07T02:45:15;97618.84;;;4.78;58.66
83691;BME280;73671;43.220;0.064;2024-03-07T02:47:41;97608.22;;;4.95;58.37
83691;BME280;73671;43.220;0.064;2024-03-07T02:50:08;97608.22;;;4.95;58.37
83691;BME280;73671;43.220;0.064;2024-03-07T02:52:34;97608.22;;;4.95;58.37
83691;BME280;73671;43.220;0.064;2024-03-07T02:55:00;97589.63;;;5.04;58.24
83691;BME280;73671;43.220;0.064;2024-03-07T02:57:25;97589.63;;;5.04;58.24
83691;BME280;73671;43.220;0.064;2024-03-07T02:59:50;97574.47;;;5.10;58.13
83691;BME280;73671;43.220;0.064;2024-03-07T03:02:16;71229.28;;;5.11;100.00
83691;BME280;73671;43.220;0.064;2024-03-07T03:04:42;97570.63;;;5.11;58.31
83691;BME280;73671;43.220;0.064;2024-03-07T03:07:07;97570.63;;;5.11;58.31
83691;BME280;73671;43.220;0.064;2024-03-07T03:09:33;97570.63;;;5.11;58.31
83691;BME280;73671;43.220;0.064;2024-03-07T03:11:59;97570.63;;;5.11;58.31
83691;BME280;73671;43.220;0.064;2024-03-07T03:14:24;97550.78;;;5.21;58.54
83691;BME280;73671;43.220;0.064;2024-03-07T03:16:49;97550.78;;;5.21;58.54
83691;BME280;73671;43.220;0.064;2024-03-07T03:19:15;97550.78;;;5.21;58.54
83691;BME280;73671;43.220;0.064;2024-03-07T03:21:40;97550.78;;;5.21;58.54
83691;BME280;73671;43.220;0.064;2024-03-07T03:24:07;97550.78;;;5.21;58.54
83691;BME280;73671;43.220;0.064;2024-03-07T03:26:33;97533.81;;;5.24;58.92
83691;BME280;73671;43.220;0.064;2024-03-07T03:28:58;97533.81;;;5.24;58.92
83691;BME280;73671;43.220;0.064;2024-03-07T03:31:25;97513.72;;;5.25;58.91
83691;BME280;73671;43.220;0.064;2024-03-07T03:33:50;97513.72;;;5.25;58.91
83691;BME280;73671;43.220;0.064;2024-03-07T03:36:16;97515.22;;;5.26;58.77
83691;BME280;73671;43.220;0.064;2024-03-07T03:38:41;97515.22;;;5.26;58.77
83691;BME280;73671;43.220;0.064;2024-03-07T03:41:07;97512.91;;;5.28;59.02
83691;BME280;73671;43.220;0.064;2024-03-07T03:43:32;97514.47;;;5.26;100.00
83691;BME280;73671;43.220;0.064;2024-03-07T03:45:58;97512.91;;;5.28;58.65
83691;BME280;73671;43.220;0.064;2024-03-07T03:48:23;97514.44;;;5.29;59.10
83691;BME280;73671;43.220;0.064;2024-03-07T03:50:49;97515.19;;;5.30;58.72
83691;BME280;73671;43.220;0.064;2024-03-07T03:53:14;97515.19;;;5.30;58.72
83691;BME280;73671;43.220;0.064;2024-03-07T03:55:39;90558.69;;;5.24;100.00
83691;BME280;73671;43.220;0.064;2024-03-07T03:58:05;97506.81;;;5.24;59.47
83691;BME280;73671;43.220;0.064;2024-03-07T04:00:34;71229.28;;;5.12;100.00
83691;BME280;73671;43.220;0.064;2024-03-07T04:02:59;97490.19;;;5.02;59.82
83691;BME280;73671;43.220;0.064;2024-03-07T04:05:25;97492.47;;;5.04;59.54
83691;BME280;73671;43.220;0.064;2024-03-07T04:07:50;97490.53;;;5.04;59.41
83691;BME280;73671;43.220;0.064;2024-03-07T04:10:16;97484.03;;;5.02;59.69
83691;BME280;73671;43.220;0.064;2024-03-07T04:12:42;97490.47;;;4.84;60.01
83691;BME280;73671;43.220;0.064;2024-03-07T04:15:11;97486.59;;;4.58;60.63
83691;BME280;73671;43.220;0.064;2024-03-07T04:17:37;97498.72;;;4.43;60.74
83691;BME280;73671;43.220;0.064;2024-03-07T04:20:03;97486.25;;;4.56;60.25
83691;BME280;73671;43.220;0.064;2024-03-07T04:22:33;97493.09;;;4.61;60.19
83691;BME280;73671;43.220;0.064;2024-03-07T04:24:59;97495.28;;;4.12;61.73
83691;BME280;73671;43.220;0.064;2024-03-07T04:27:24;97486.47;;;4.08;61.76
83691;BME280;73671;43.220;0.064;2024-03-07T04:29:51;97478.94;;;4.26;60.49
83691;BME280;73671;43.220;0.064;2024-03-07T04:32:17;97478.19;;;4.22;61.54
83691;BME280;73671;43.220;0.064;2024-03-07T04:34:43;97486.75;;;4.17;61.43
83691;BME280;73671;43.220;0.064;2024-03-07T04:37:09;97484.41;;;4.19;61.28
83691;BME280;73671;43.220;0.064;2024-03-07T04:39:35;97480.22;;;4.14;60.79
83691;BME280;73671;43.220;0.064;2024-03-07T04:42:01;97479.19;;;4.04;61.44
83691;BME280;73671;43.220;0.064;2024-03-07T04:44:28;97477.13;;;3.85;62.42
83691;BME280;73671;43.220;0.064;2024-03-07T04:46:53;97476.94;;;3.99;61.15
83691;BME280;73671;43.220;0.064;2024-03-07T04:49:25;97480.63;;;4.13;61.34
83691;BME280;73671;43.220;0.064;2024-03-07T04:51:52;97476.69;;;4.21;60.80
83691;BME280;73671;43.220;0.064;2024-03-07T04:54:21;97475.41;;;4.29;60.41
83691;BME280;73671;43.220;0.064;2024-03-07T04:56:48;97475.06;;;4.27;60.99
83691;BME280;73671;43.220;0.064;2024-03-07T04:59:15;97476.63;;;4.24;61.12
83691;BME280;73671;43.220;0.064;2024-03-07T05:01:41;97467.44;;;4.22;60.39
83691;BME280;73671;43.220;0.064;2024-03-07T05:04:07;97455.13;;;4.21;60.54
83691;BME280;73671;43.220;0.064;2024-03-07T05:06:33;97454.31;;;4.24;60.16
83691;BME280;73671;43.220;0.064;2024-03-07T05:09:05;97455.03;;;4.28;60.45
83691;BME280;73671;43.220;0.064;2024-03-07T05:11:32;97453.25;;;4.18;60.49
83691;BME280;73671;43.220;0.064;2024-03-07T05:13:58;97451.69;;;3.86;61.48
83691;BME280;73671;43.220;0.064;2024-03-07T05:16:25;97448.06;;;4.03;61.55
83691;BME280;73671;43.220;0.064;2024-03-07T05:18:51;97450.28;;;4.09;61.23
83691;BME280;73671;43.220;0.064;2024-03-07T05:21:18;97457.56;;;4.12;60.42
83691;BME280;73671;43.220;0.064;2024-03-07T05:24:02;97455.59;;;4.16;60.30
83691;BME280;73671;43.220;0.064;2024-03-07T05:26:31;97463.66;;;4.16;60.73
83691;BME280;73671;43.220;0.064;2024-03-07T05:29:05;97460.97;;;4.16;60.00
83691;BME280;73671;43.220;0.064;2024-03-07T05:31:33;97457.53;;;4.15;60.21
83691;BME280;73671;43.220;0.064;2024-03-07T05:34:02;97457.53;;;4.15;60.21
83691;BME280;73671;43.220;0.064;2024-03-07T05:36:34;97452.91;;;4.12;60.64
83691;BME280;73671;43.220;0.064;2024-03-07T05:39:00;97453.44;;;4.03;60.60
83691;BME280;73671;43.220;0.064;2024-03-07T05:41:28;97443.81;;;4.02;60.46
83691;BME280;73671;43.220;0.064;2024-03-07T05:43:55;97441.50;;;4.01;60.59
83691;BME280;73671;43.220;0.064;2024-03-07T05:46:21;97438.81;;;4.01;60.51
83691;BME280;73671;43.220;0.064;2024-03-07T05:48:46;97445.44;;;3.96;60.52
83691;BME280;73671;43.220;0.064;2024-03-07T05:51:15;97450.84;;;3.96;60.88
83691;BME280;73671;43.220;0.064;2024-03-07T05:53:41;97443.16;;;3.91;60.87
83691;BME280;73671;43.220;0.064;2024-03-07T05:56:07;97444.06;;;3.81;61.12
83691;BME280;73671;43.220;0.064;2024-03-07T05:58:33;97448.09;;;3.28;62.87
83691;BME280;73671;43.220;0.064;2024-03-07T06:00:58;97447.13;;;3.07;63.82
83691;BME280;73671;43.220;0.064;2024-03-07T06:03:24;97441.25;;;3.19;63.29
83691;BME280;73671;43.220;0.064;2024-03-07T06:05:50;97437.69;;;3.30;62.35
83691;BME280;73671;43.220;0.064;2024-03-07T06:08:20;97442.28;;;3.33;62.75
83691;BME280;73671;43.220;0.064;2024-03-07T06:10:47;97442.13;;;3.47;61.69
83691;BME280;73671;43.220;0.064;2024-03-07T06:13:14;97425.91;;;3.54;61.81
83691;BME280;73671;43.220;0.064;2024-03-07T06:15:43;97437.34;;;3.62;61.20
83691;BME280;73671;43.220;0.064;2024-03-07T06:18:08;97437.34;;;3.66;61.00
83691;BME280;73671;43.220;0.064;2024-03-07T06:20:39;97437.66;;;3.68;61.01
83691;BME280;73671;43.220;0.064;2024-03-07T06:23:06;97430.31;;;3.72;61.02
83691;BME280;73671;43.220;0.064;2024-03-07T06:25:32;97416.50;;;3.70;60.89
83691;BME280;73671;43.220;0.064;2024-03-07T06:28:16;97424.94;;;3.72;60.68
83691;BME280;73671;43.220;0.064;2024-03-07T06:30:44;97430.69;;;3.74;60.53
83691;BME280;73671;43.220;0.064;2024-03-07T06:33:10;97428.00;;;3.74;60.97
83691;BME280;73671;43.220;0.064;2024-03-07T06:35:36;97428.00;;;3.74;60.32
83691;BME280;73671;43.220;0.064;2024-03-07T06:38:11;97421.84;;;3.73;60.94
83691;BME280;73671;43.220;0.064;2024-03-07T06:40:36;97424.25;;;3.64;60.47
83691;BME280;73671;43.220;0.064;2024-03-07T06:43:02;97428.84;;;3.67;61.02
83691;BME280;73671;43.220;0.064;2024-03-07T06:45:38;97433.78;;;3.72;60.20
83691;BME280;73671;43.220;0.064;2024-03-07T06:48:07;97439.75;;;3.53;62.66
83691;BME280;73671;43.220;0.064;2024-03-07T06:50:36;97438.38;;;2.96;64.86
83691;BME280;73671;43.220;0.064;2024-03-07T06:53:02;97433.59;;;3.18;63.30
83691;BME280;73671;43.220;0.064;2024-03-07T06:55:28;97428.47;;;3.31;62.70
83691;BME280;73671;43.220;0.064;2024-03-07T06:57:53;97431.38;;;3.47;63.06
83691;BME280;73671;43.220;0.064;2024-03-07T07:00:19;97422.75;;;3.63;62.43
83691;BME280;73671;43.220;0.064;2024-03-07T07:02:46;97428.00;;;3.74;62.31
83691;BME280;73671;43.220;0.064;2024-03-07T07:05:12;97428.28;;;3.83;61.24
83691;BME280;73671;43.220;0.064;2024-03-07T07:07:38;97428.56;;;3.92;60.93
83691;BME280;73671;43.220;0.064;2024-03-07T07:10:04;97425.50;;;3.90;61.51
83691;BME280;73671;43.220;0.064;2024-03-07T07:12:34;97429.22;;;4.00;60.99
83691;BME280;73671;43.220;0.064;2024-03-07T07:15:00;97423.06;;;3.99;61.71
83691;BME280;73671;43.220;0.064;2024-03-07T07:17:25;97424.59;;;4.00;61.81
83691;BME280;73671;43.220;0.064;2024-03-07T07:19:54;97428.28;;;4.14;61.30
83691;BME280;73671;43.220;0.064;2024-03-07T07:22:21;97417.50;;;4.14;61.35
83691;BME280;73671;43.220;0.064;2024-03-07T07:24:46;97409.69;;;4.23;61.23
83691;BME280;73671;43.220;0.064;2024-03-07T07:27:12;97400.78;;;4.26;61.57
83691;BME280;73671;43.220;0.064;2024-03-07T07:29:37;97397.97;;;4.33;61.12
83691;BME280;73671;43.220;0.064;2024-03-07T07:32:03;97397.06;;;4.43;60.66
83691;BME280;73671;43.220;0.064;2024-03-07T07:34:28;97400.84;;;4.50;61.00
83691;BME280;73671;43.220;0.064;2024-03-07T07:36:55;97403.16;;;4.47;60.81
83691;BME280;73671;43.220;0.064;2024-03-07T07:39:21;97399.31;;;4.49;60.55
83691;BME280;73671;43.220;0.064;2024-03-07T07:41:46;97398.16;;;4.73;100.00
83691;BME280;73671;43.220;0.064;2024-03-07T07:44:12;97399.31;;;4.96;60.08
83691;BME280;73671;43.220;0.064;2024-03-07T07:46:39;97400.97;;;5.13;60.06
83691;BME280;73671;43.220;0.064;2024-03-07T07:49:05;97394.34;;;5.18;59.90
83691;BME280;73671;43.220;0.064;2024-03-07T07:51:31;97382.75;;;5.17;59.92
83691;BME280;73671;43.220;0.064;2024-03-07T07:53:56;97380.50;;;5.16;60.24
83691;BME280;73671;43.220;0.064;2024-03-07T07:56:22;97378.81;;;5.22;59.57
83691;BME280;73671;43.220;0.064;2024-03-07T07:58:48;97379.63;;;4.99;60.74
83691;BME280;73671;43.220;0.064;2024-03-07T08:01:14;97367.03;;;5.12;60.20
83691;BME280;73671;43.220;0.064;2024-03-07T08:03:41;90582.66;;;5.42;100.00
83691;BME280;73671;43.220;0.064;2024-03-07T08:06:06;97367.31;;;6.18;57.99
83691;BME280;73671;43.220;0.064;2024-03-07T08:08:32;97367.31;;;6.18;57.99
83691;BME280;73671;43.220;0.064;2024-03-07T08:10:57;97367.31;;;6.18;57.99
83691;BME280;73671;43.220;0.064;2024-03-07T08:13:24;97367.31;;;6.18;57.99
83691;BME280;73671;43.220;0.064;2024-03-07T08:15:50;97367.31;;;6.18;57.99
83691;BME280;73671;43.220;0.064;2024-03-07T08:18:15;97366.03;;;9.91;51.29
83691;BME280;73671;43.220;0.064;2024-03-07T08:20:42;97366.03;;;9.91;51.29
83691;BME280;73671;43.220;0.064;2024-03-07T08:23:08;97366.03;;;9.91;51.29
83691;BME280;73671;43.220;0.064;2024-03-07T08:25:34;97366.03;;;9.91;51.29
83691;BME280;73671;43.220;0.064;2024-03-07T08:28:00;97361.91;;;9.77;52.25
83691;BME280;73671;43.220;0.064;2024-03-07T08:30:26;97355.63;;;9.90;51.34
83691;BME280;73671;43.220;0.064;2024-03-07T08:32:55;97354.28;;;9.94;50.61
83691;BME280;73671;43.220;0.064;2024-03-07T08:35:21;97348.63;;;10.11;50.45
83691;BME280;73671;43.220;0.064;2024-03-07T08:37:49;97360.81;;;10.28;49.14
83691;BME280;73671;43.220;0.064;2024-03-07T08:40:25;97356.19;;;10.16;49.78
83691;BME280;73671;43.220;0.064;2024-03-07T08:42:52;97362.31;;;10.29;50.03
83691;BME280;73671;43.220;0.064;2024-03-07T08:45:21;97356.25;;;10.84;49.80
83691;BME280;73671;43.220;0.064;2024-03-07T08:47:48;97356.25;;;10.84;49.80
83691;BME280;73671;43.220;0.064;2024-03-07T08:50:14;97356.25;;;10.84;49.80
83691;BME280;73671;43.220;0.064;2024-03-07T08:52:40;97356.25;;;10.84;49.80
83691;BME280;73671;43.220;0.064;2024-03-07T08:55:07;97342.06;;;11.54;46.77
83691;BME280;73671;43.220;0.064;2024-03-07T08:57:38;97344.91;;;11.68;45.04
83691;BME280;73671;43.220;0.064;2024-03-07T09:00:05;97343.97;;;11.72;45.26
83691;BME280;73671;43.220;0.064;2024-03-07T09:02:34;97343.34;;;11.86;44.88
83691;BME280;73671;43.220;0.064;2024-03-07T09:05:03;97343.34;;;11.86;44.88
83691;BME280;73671;43.220;0.064;2024-03-07T09:07:28;97338.88;;;12.16;44.36
83691;BME280;73671;43.220;0.064;2024-03-07T09:09:55;97338.88;;;12.16;44.36
83691;BME280;73671;43.220;0.064;2024-03-07T09:12:20;71229.28;;;-146.39;100.00
83691;BME280;73671;43.220;0.064;2024-03-07T09:14:45;71229.28;;;-146.39;100.00
83691;BME280;73671;43.220;0.064;2024-03-07T09:17:11;71229.28;;;-146.39;100.00
83691;BME280;73671;43.220;0.064;2024-03-07T09:19:37;71229.28;;;-146.39;100.00
83691;BME280;73671;43.220;0.064;2024-03-07T09:22:03;71229.28;;;-146.39;100.00
83691;BME280;73671;43.220;0.064;2024-03-07T09:24:30;71229.28;;;-146.39;100.00
83691;BME280;73671;43.220;0.064;2024-03-07T09:26:56;71229.28;;;-146.39;100.00
83691;BME280;73671;43.220;0.064;2024-03-07T09:29:22;71229.28;;;-146.39;100.00
83691;BME280;73671;43.220;0.064;2024-03-07T09:31:51;71229.28;;;-146.39;100.00
83691;BME280;73671;43.220;0.064;2024-03-07T09:34:20;71229.28;;;-146.39;100.00
83691;BME280;73671;43.220;0.064;2024-03-07T09:36:49;71229.28;;;-146.39;100.00
83691;BME280;73671;43.220;0.064;2024-03-07T09:39:15;71229.28;;;-146.39;100.00
83691;BME280;73671;43.220;0.064;2024-03-07T09:41:41;71229.28;;;-146.39;100.00
83691;BME280;73671;43.220;0.064;2024-03-07T09:44:13;71229.28;;;-146.39;100.00
83691;BME280;73671;43.220;0.064;2024-03-07T09:46:40;71229.28;;;-146.39;100.00
83691;BME280;73671;43.220;0.064;2024-03-07T09:49:06;71229.28;;;-146.39;100.00
83691;BME280;73671;43.220;0.064;2024-03-07T09:51:34;71229.28;;;-146.39;100.00
83691;BME280;73671;43.220;0.064;2024-03-07T09:54:00;71229.28;;;-146.39;100.00
83691;BME280;73671;43.220;0.064;2024-03-07T09:56:27;71229.28;;;-146.39;100.00
83691;BME280;73671;43.220;0.064;2024-03-07T09:58:57;71229.28;;;-146.39;100.00
83691;BME280;73671;43.220;0.064;2024-03-07T10:01:25;71229.28;;;-146.39;100.00
83691;BME280;73671;43.220;0.064;2024-03-07T10:03:59;71229.28;;;-146.39;100.00
83691;BME280;73671;43.220;0.064;2024-03-07T10:06:45;71229.28;;;-146.39;100.00
83691;BME280;73671;43.220;0.064;2024-03-07T10:09:11;71229.28;;;-146.39;100.00
83691;BME280;73671;43.220;0.064;2024-03-07T10:11:41;71229.28;;;-146.39;100.00
83691;BME280;73671;43.220;0.064;2024-03-07T10:14:07;71229.28;;;-146.39;100.00
83691;BME280;73671;43.220;0.064;2024-03-07T10:16:32;71229.28;;;-146.39;100.00
83691;BME280;73671;43.220;0.064;2024-03-07T10:18:58;71229.28;;;-146.39;100.00
83691;BME280;73671;43.220;0.064;2024-03-07T10:21:26;71229.28;;;-146.39;100.00
83691;BME280;73671;43.220;0.064;2024-03-07T10:24:04;71229.28;;;-146.39;100.00
83691;BME280;73671;43.220;0.064;2024-03-07T10:26:35;71229.28;;;-146.39;100.00
83691;BME280;73671;43.220;0.064;2024-03-07T10:29:00;71229.28;;;-146.39;100.00
83691;BME280;73671;43.220;0.064;2024-03-07T10:31:32;71229.28;;;-146.39;100.00
83691;BME280;73671;43.220;0.064;2024-03-07T10:34:01;71229.28;;;-146.39;100.00
83691;BME280;73671;43.220;0.064;2024-03-07T10:36:32;71229.28;;;-146.39;100.00
83691;BME280;73671;43.220;0.064;2024-03-07T10:38:59;71229.28;;;-146.39;100.00
83691;BME280;73671;43.220;0.064;2024-03-07T10:41:36;71229.28;;;-146.39;100.00
83691;BME280;73671;43.220;0.064;2024-03-07T10:44:07;71229.28;;;-146.39;100.00
83691;BME280;73671;43.220;0.064;2024-03-07T10:46:33;71229.28;;;-146.39;100.00
83691;BME280;73671;43.220;0.064;2024-03-07T10:48:59;71229.28;;;-146.39;100.00
83691;BME280;73671;43.220;0.064;2024-03-07T10:51:40;71229.28;;;-146.39;100.00
83691;BME280;73671;43.220;0.064;2024-03-07T10:54:20;71229.28;;;-146.39;100.00
83691;BME280;73671;43.220;0.064;2024-03-07T10:56:51;71229.28;;;-146.39;100.00
83691;BME280;73671;43.220;0.064;2024-03-07T10:59:21;71229.28;;;-146.39;100.00
83691;BME280;73671;43.220;0.064;2024-03-07T11:04:22;71229.28;;;-146.39;100.00
83691;BME280;73671;43.220;0.064;2024-03-07T11:06:48;71229.28;;;-146.39;100.00
83691;BME280;73671;43.220;0.064;2024-03-07T11:09:15;71229.28;;;-146.39;100.00
83691;BME280;73671;43.220;0.064;2024-03-07T11:11:48;71229.28;;;-146.39;100.00
83691;BME280;73671;43.220;0.064;2024-03-07T11:14:14;71229.28;;;-146.39;100.00
83691;BME280;73671;43.220;0.064;2024-03-07T11:16:42;71229.28;;;-146.39;100.00
83691;BME280;73671;43.220;0.064;2024-03-07T11:19:28;71229.28;;;-146.39;100.00
83691;BME280;73671;43.220;0.064;2024-03-07T11:21:55;71229.28;;;-146.39;100.00
83691;BME280;73671;43.220;0.064;2024-03-07T11:24:25;71229.28;;;-146.39;100.00
83691;BME280;73671;43.220;0.064;2024-03-07T11:27:11;71229.28;;;-146.39;100.00
83691;BME280;73671;43.220;0.064;2024-03-07T11:32:15;71229.28;;;-146.39;100.00
83691;BME280;73671;43.220;0.064;2024-03-07T11:34:42;71229.28;;;-146.39;100.00
83691;BME280;73671;43.220;0.064;2024-03-07T11:37:09;71229.28;;;-146.39;100.00
83691;BME280;73671;43.220;0.064;2024-03-07T11:39:44;71229.28;;;-146.39;100.00
83691;BME280;73671;43.220;0.064;2024-03-07T11:44:52;71229.28;;;-146.39;100.00
83691;BME280;73671;43.220;0.064;2024-03-07T11:47:21;71229.28;;;-146.39;100.00
83691;BME280;73671;43.220;0.064;2024-03-07T11:49:50;71229.28;;;-146.39;100.00
83691;BME280;73671;43.220;0.064;2024-03-07T11:52:20;71229.28;;;-146.39;100.00
83691;BME280;73671;43.220;0.064;2024-03-07T11:54:46;71229.28;;;-146.39;100.00
83691;BME280;73671;43.220;0.064;2024-03-07T11:57:13;71229.28;;;-146.39;100.00
83691;BME280;73671;43.220;0.064;2024-03-07T11:59:42;71229.28;;;-146.39;100.00
83691;BME280;73671;43.220;0.064;2024-03-07T12:02:14;71229.28;;;-146.39;100.00
83691;BME280;73671;43.220;0.064;2024-03-07T12:04:43;71229.28;;;-146.39;100.00
83691;BME280;73671;43.220;0.064;2024-03-07T12:07:09;71229.28;;;-146.39;100.00
83691;BME280;73671;43.220;0.064;2024-03-07T12:09:40;71229.28;;;-146.39;100.00
83691;BME280;73671;43.220;0.064;2024-03-07T12:12:11;71229.28;;;-146.39;100.00
83691;BME280;73671;43.220;0.064;2024-03-07T12:14:38;71229.28;;;-146.39;100.00
83691;BME280;73671;43.220;0.064;2024-03-07T12:17:04;71229.28;;;-146.39;100.00
83691;BME280;73671;43.220;0.064;2024-03-07T12:19:32;71229.28;;;-146.39;100.00
83691;BME280;73671;43.220;0.064;2024-03-07T12:22:01;71229.28;;;-146.39;100.00
83691;BME280;73671;43.220;0.064;2024-03-07T12:24:28;71229.28;;;-146.39;100.00
83691;BME280;73671;43.220;0.064;2024-03-07T12:27:04;71229.28;;;-146.39;100.00
83691;BME280;73671;43.220;0.064;2024-03-07T12:29:30;71229.28;;;-146.39;100.00
83691;BME280;73671;43.220;0.064;2024-03-07T12:31:56;71229.28;;;-146.39;100.00
83691;BME280;73671;43.220;0.064;2024-03-07T12:34:21;71229.28;;;-146.39;100.00
83691;BME280;73671;43.220;0.064;2024-03-07T12:36:47;71229.28;;;-146.39;100.00
83691;BME280;73671;43.220;0.064;2024-03-07T12:39:25;71229.28;;;-146.39;100.00
83691;BME280;73671;43.220;0.064;2024-03-07T12:41:56;71229.28;;;-146.39;100.00
83691;BME280;73671;43.220;0.064;2024-03-07T12:44:22;71229.28;;;-146.39;100.00
83691;BME280;73671;43.220;0.064;2024-03-07T12:46:54;71229.28;;;-146.39;100.00
83691;BME280;73671;43.220;0.064;2024-03-07T12:49:22;71229.28;;;-146.39;100.00
83691;BME280;73671;43.220;0.064;2024-03-07T12:51:55;71229.28;;;-146.39;100.00
83691;BME280;73671;43.220;0.064;2024-03-07T12:54:22;71229.28;;;-146.39;100.00
83691;BME280;73671;43.220;0.064;2024-03-07T12:56:48;71229.28;;;-146.39;100.00
83691;BME280;73671;43.220;0.064;2024-03-07T12:59:15;71229.28;;;-146.39;100.00
83691;BME280;73671;43.220;0.064;2024-03-07T13:01:42;71229.28;;;-146.39;100.00
83691;BME280;73671;43.220;0.064;2024-03-07T13:04:10;71229.28;;;-146.39;100.00
83691;BME280;73671;43.220;0.064;2024-03-07T13:06:36;71229.28;;;-146.39;100.00